createdAt,value
2024-03-02T09:01:38.344Z,94068.00
2024-03-02T09:02:15.767Z,94064.00
2024-03-02T09:03:15.741Z,94067.00
2024-03-02T09:04:15.758Z,94068.00
2024-03-02T09:05:15.760Z,94067.00
2024-03-02T09:06:15.826Z,94064.00
2024-03-02T09:07:15.775Z,94065.00
2024-03-02T09:08:15.774Z,94061.00
2024-03-02T09:09:15.760Z,94062.00
2024-03-02T09:10:15.764Z,94064.00
2024-03-02T09:11:15.779Z,94062.00
2024-03-02T09:12:15.754Z,94061.00
2024-03-02T09:13:15.757Z,94061.00
2024-03-02T09:14:15.783Z,94061.00
2024-03-02T09:15:15.769Z,94061.00
2024-03-02T09:16:15.864Z,94058.00
2024-03-02T09:17:15.812Z,94059.00
2024-03-02T09:18:15.803Z,94055.00
2024-03-02T09:19:15.816Z,94056.00
2024-03-02T09:20:15.793Z,94054.00
2024-03-02T09:21:15.854Z,94058.00
2024-03-02T09:22:15.870Z,94058.00
2024-03-02T09:23:15.899Z,94058.00
2024-03-02T09:24:17.731Z,94055.00
2024-03-02T09:25:15.938Z,94057.00
2024-03-02T09:26:15.948Z,94057.00
2024-03-02T09:27:15.970Z,94055.00
2024-03-02T09:28:15.929Z,94055.00
2024-03-02T09:29:15.953Z,94053.00
2024-03-02T09:30:23.274Z,94050.00
2024-03-02T09:31:23.267Z,94050.00
2024-03-02T09:32:23.242Z,94052.00
2024-03-02T09:33:23.326Z,94051.00
2024-03-02T09:34:23.278Z,94050.00
2024-03-02T09:35:23.259Z,94051.00
2024-03-02T09:36:23.355Z,94050.00
2024-03-02T09:37:23.268Z,94050.00
2024-03-02T09:38:23.294Z,94048.00
2024-03-02T09:39:23.344Z,94047.00
2024-03-02T09:40:23.264Z,94044.00
2024-03-02T09:41:23.286Z,94044.00
2024-03-02T09:42:24.750Z,94043.00
2024-03-02T09:43:23.267Z,94040.00
2024-03-02T09:44:23.277Z,94041.00
2024-03-02T09:45:23.329Z,94042.00
2024-03-02T09:46:23.270Z,94038.00
2024-03-02T09:47:23.285Z,94037.00
2024-03-02T09:48:23.313Z,94037.00
2024-03-02T09:49:23.265Z,94033.00
2024-03-02T09:50:23.317Z,94033.00
2024-03-02T09:51:23.314Z,94032.00
2024-03-02T09:52:23.270Z,94032.00
2024-03-02T09:53:23.298Z,94032.00
2024-03-02T09:54:23.754Z,94031.00
2024-03-02T09:55:23.315Z,94032.00
2024-03-02T09:56:23.308Z,94028.00
2024-03-02T09:57:23.297Z,94028.00
2024-03-02T09:58:23.305Z,94029.00
2024-03-02T09:59:23.315Z,94026.00
2024-03-02T10:00:23.306Z,94024.00
2024-03-02T10:01:23.403Z,94024.00
2024-03-02T10:02:23.389Z,94021.00
2024-03-02T10:03:23.300Z,94019.00
2024-03-02T10:04:23.304Z,94017.00
2024-03-02T10:05:23.295Z,94018.00
2024-03-02T10:06:23.355Z,94016.00
2024-03-02T10:07:23.293Z,94016.00
2024-03-02T10:08:23.299Z,94011.00
2024-03-02T10:09:23.318Z,94014.00
2024-03-02T10:10:24.238Z,94011.00
2024-03-02T10:11:23.361Z,94013.00
2024-03-02T10:12:23.354Z,94010.00
2024-03-02T10:13:23.305Z,94007.00
2024-03-02T10:14:23.314Z,94005.00
2024-03-02T10:15:23.345Z,94003.00
2024-03-02T10:16:23.305Z,94002.00
2024-03-02T10:17:23.319Z,94001.00
2024-03-02T10:18:23.336Z,93998.00
2024-03-02T10:19:23.309Z,93995.00
2024-03-02T10:20:23.321Z,93995.00
2024-03-02T10:21:23.354Z,93995.00
2024-03-02T10:22:23.326Z,93995.00
2024-03-02T10:23:23.353Z,93996.00
2024-03-02T10:24:23.324Z,93991.00
2024-03-02T10:25:36.585Z,93992.00
2024-03-02T10:26:24.344Z,93992.00
2024-03-02T10:27:23.390Z,93991.00
2024-03-02T10:28:23.387Z,93989.00
2024-03-02T10:29:23.354Z,93988.00
2024-03-02T10:30:23.360Z,93986.00
2024-03-02T10:31:23.352Z,93986.00
2024-03-02T10:32:23.363Z,93983.00
2024-03-02T10:33:23.395Z,93982.00
2024-03-02T10:34:23.356Z,93981.00
2024-03-02T10:35:23.473Z,93979.00
2024-03-02T10:36:23.372Z,93977.00
2024-03-02T10:37:23.368Z,93974.00
2024-03-02T10:38:23.369Z,93974.00
2024-03-02T10:39:23.381Z,93975.00
2024-03-02T10:40:23.371Z,93971.00
2024-03-02T10:41:23.401Z,93969.00
2024-03-02T10:42:23.373Z,93969.00
2024-03-02T10:43:23.371Z,93966.00
2024-03-02T10:44:23.388Z,93965.00
2024-03-02T10:45:23.382Z,93963.00
2024-03-02T10:46:23.382Z,93960.00
2024-03-02T10:47:23.390Z,93959.00
2024-03-02T10:48:23.387Z,93955.00
2024-03-02T10:49:23.346Z,93952.00
2024-03-02T10:50:23.353Z,93955.00
2024-03-02T10:51:23.394Z,93950.00
2024-03-02T10:52:23.368Z,93948.00
2024-03-02T10:53:23.389Z,93945.00
2024-03-02T10:54:23.391Z,93936.00
2024-03-02T10:55:23.599Z,93931.00
2024-03-02T10:56:23.382Z,93931.00
2024-03-02T10:57:23.370Z,93929.00
2024-03-02T10:58:23.442Z,93927.00
2024-03-02T10:59:23.372Z,93927.00
2024-03-02T11:00:23.383Z,93924.00
2024-03-02T11:01:23.496Z,93925.00
2024-03-02T11:02:23.363Z,93926.00
2024-03-02T11:03:23.392Z,93924.00
2024-03-02T11:04:23.456Z,93926.00
2024-03-02T11:05:23.359Z,93923.00
2024-03-02T11:06:23.360Z,93921.00
2024-03-02T11:07:23.408Z,93916.00
2024-03-02T11:08:23.402Z,93912.00
2024-03-02T11:09:23.413Z,93913.00
2024-03-02T11:10:23.416Z,93910.00
2024-03-02T11:11:23.450Z,93908.00
2024-03-02T11:12:23.462Z,93907.00
2024-03-02T11:13:23.435Z,93904.00
2024-03-02T11:14:23.412Z,93906.00
2024-03-02T11:15:23.537Z,93908.00
2024-03-02T11:16:23.490Z,93905.00
2024-03-02T11:17:23.521Z,93904.00
2024-03-02T11:18:23.632Z,93904.00
2024-03-02T11:19:23.633Z,93903.00
2024-03-02T11:20:23.588Z,93900.00
2024-03-02T11:21:23.658Z,93893.00
2024-03-02T11:22:23.671Z,93889.00
2024-03-02T11:23:23.701Z,93889.00
2024-03-02T11:24:23.841Z,93891.00
2024-03-02T11:25:23.919Z,93889.00
2024-03-02T11:26:23.856Z,93889.00
2024-03-02T11:27:23.938Z,93888.00
2024-03-02T11:28:24.006Z,93881.00
2024-03-02T11:29:24.056Z,93873.00
2024-03-02T11:30:24.218Z,93872.00
2024-03-02T11:31:24.186Z,93873.00
2024-03-02T11:32:24.239Z,93875.00
2024-03-02T11:33:24.406Z,93872.00
2024-03-02T11:34:24.398Z,93872.00
2024-03-02T11:35:24.495Z,93868.00
2024-03-02T11:36:24.563Z,93871.00
2024-03-02T11:37:24.586Z,93868.00
2024-03-02T11:38:24.698Z,93868.00
2024-03-02T11:39:24.750Z,93870.00
2024-03-02T11:40:24.814Z,93869.00
2024-03-02T11:41:24.861Z,93864.00
2024-03-02T11:42:24.906Z,93858.00
2024-03-02T11:43:24.976Z,93859.00
2024-03-02T11:44:25.038Z,93854.00
2024-03-02T11:45:25.139Z,93854.00
2024-03-02T11:46:25.140Z,93847.00
2024-03-02T11:47:25.238Z,93852.00
2024-03-02T11:48:25.285Z,93854.00
2024-03-02T11:49:25.322Z,93843.00
2024-03-02T11:50:25.457Z,93837.00
2024-03-02T11:51:25.435Z,93833.00
2024-03-02T11:52:25.455Z,93833.00
2024-03-02T11:53:25.518Z,93842.00
2024-03-02T11:54:25.572Z,93830.00
2024-03-02T11:55:25.578Z,93838.00
2024-03-02T11:56:25.620Z,93831.00
2024-03-02T11:57:25.770Z,93823.00
2024-03-02T11:58:25.728Z,93824.00
2024-03-02T11:59:25.752Z,93822.00
2024-03-02T12:00:25.886Z,93817.00
2024-03-02T12:01:25.968Z,93823.00
2024-03-02T12:02:25.885Z,93826.00
2024-03-02T12:03:25.936Z,93824.00
2024-03-02T12:04:25.928Z,93815.00
2024-03-02T12:05:25.931Z,93820.00
2024-03-02T12:06:26.016Z,93815.00
2024-03-02T12:07:25.987Z,93810.00
2024-03-02T12:08:26.018Z,93814.00
2024-03-02T12:09:26.089Z,93817.00
2024-03-02T12:10:26.141Z,93815.00
2024-03-02T12:11:26.070Z,93818.00
2024-03-02T12:12:26.106Z,93813.00
2024-03-02T12:13:26.079Z,93811.00
2024-03-02T12:14:26.129Z,93807.00
2024-03-02T12:15:26.111Z,93809.00
2024-03-02T12:16:26.130Z,93812.00
2024-03-02T12:17:26.135Z,93804.00
2024-03-02T12:18:26.196Z,93800.00
2024-03-02T12:19:26.116Z,93811.00
2024-03-02T12:20:26.149Z,93815.00
2024-03-02T12:21:26.186Z,93803.00
2024-03-02T12:22:26.201Z,93801.00
2024-03-02T12:23:26.254Z,93804.00
2024-03-02T12:24:26.268Z,93808.00
2024-03-02T12:25:26.320Z,93791.00
2024-03-02T12:26:26.350Z,93794.00
2024-03-02T12:27:26.401Z,93794.00
2024-03-02T12:28:26.455Z,93797.00
2024-03-02T12:29:26.489Z,93790.00
2024-03-02T12:30:26.582Z,93791.00
2024-03-02T12:31:26.621Z,93795.00
2024-03-02T12:32:26.691Z,93795.00
2024-03-02T12:33:26.779Z,93792.00
2024-03-02T12:34:26.956Z,93793.00
2024-03-02T12:35:26.929Z,93791.00
2024-03-02T12:36:27.039Z,93793.00
2024-03-02T12:37:27.024Z,93782.00
2024-03-02T12:38:27.082Z,93789.00
2024-03-02T12:39:27.204Z,93776.00
2024-03-02T12:40:27.180Z,93786.00
2024-03-02T12:41:29.452Z,93789.00
2024-03-02T12:42:27.297Z,93791.00
2024-03-02T12:43:27.353Z,93786.00
2024-03-02T12:44:27.443Z,93796.00
2024-03-02T12:45:27.530Z,93783.00
2024-03-02T12:46:27.509Z,93782.00
2024-03-02T12:47:27.576Z,93787.00
2024-03-02T12:48:27.648Z,93773.00
2024-03-02T12:49:27.629Z,93770.00
2024-03-02T12:50:27.751Z,93778.00
2024-03-02T12:51:27.751Z,93777.00
2024-03-02T12:52:27.777Z,93771.00
2024-03-02T12:53:27.797Z,93772.00
2024-03-02T12:54:27.848Z,93764.00
2024-03-02T12:55:27.868Z,93775.00
2024-03-02T12:56:27.914Z,93782.00
2024-03-02T12:57:27.935Z,93771.00
2024-03-02T12:58:28.004Z,93773.00
2024-03-02T12:59:28.152Z,93767.00
2024-03-02T13:00:28.080Z,93772.00
2024-03-02T13:01:28.135Z,93786.00
2024-03-02T13:02:28.033Z,93781.00
2024-03-02T13:03:28.052Z,93766.00
2024-03-02T13:04:28.078Z,93768.00
2024-03-02T13:05:28.084Z,93785.00
2024-03-02T13:06:28.140Z,93767.00
2024-03-02T13:07:28.118Z,93786.00
2024-03-02T13:08:28.115Z,93783.00
2024-03-02T13:09:28.124Z,93778.00
2024-03-02T13:10:28.229Z,93772.00
2024-03-02T13:11:28.179Z,93775.00
2024-03-02T13:12:28.166Z,93782.00
2024-03-02T13:13:28.139Z,93774.00
2024-03-02T13:14:28.153Z,93777.00
2024-03-02T13:15:28.282Z,93783.00
2024-03-02T13:16:32.821Z,93791.00
2024-03-02T13:17:32.644Z,93774.00
2024-03-02T13:18:29.293Z,93785.00
2024-03-02T13:19:28.242Z,93774.00
2024-03-02T13:20:28.274Z,93769.00
2024-03-02T13:21:28.281Z,93779.00
2024-03-02T13:22:28.204Z,93778.00
2024-03-02T13:23:28.232Z,93771.00
2024-03-02T13:24:28.221Z,93769.00
2024-03-02T13:25:30.112Z,93780.00
2024-03-02T13:26:28.243Z,93766.00
2024-03-02T13:27:28.300Z,93766.00
2024-03-02T13:28:28.303Z,93774.00
2024-03-02T13:29:28.337Z,93777.00
2024-03-02T13:30:28.444Z,93762.00
2024-03-02T13:31:28.422Z,93773.00
2024-03-02T13:32:28.530Z,93755.00
2024-03-02T13:33:28.572Z,93766.00
2024-03-02T13:34:28.575Z,93779.00
2024-03-02T13:35:28.637Z,93771.00
2024-03-02T13:36:28.718Z,93767.00
2024-03-02T13:37:28.759Z,93760.00
2024-03-02T13:38:28.823Z,93771.00
2024-03-02T13:39:28.917Z,93759.00
2024-03-02T13:40:28.985Z,93768.00
2024-03-02T13:41:29.022Z,93780.00
2024-03-02T13:43:29.171Z,93752.00
2024-03-02T13:44:29.250Z,93759.00
2024-03-02T13:45:29.318Z,93766.00
2024-03-02T13:46:29.402Z,93757.00
2024-03-02T13:47:29.440Z,93756.00
2024-03-02T13:48:29.555Z,93753.00
2024-03-02T13:49:29.577Z,93743.00
2024-03-02T13:50:29.713Z,93752.00
2024-03-02T13:51:29.767Z,93744.00
2024-03-02T13:52:29.786Z,93751.00
2024-03-02T13:53:29.884Z,93759.00
2024-03-02T13:54:29.952Z,93770.00
2024-03-02T13:55:30.022Z,93754.00
2024-03-02T13:56:30.061Z,93741.00
2024-03-02T13:57:30.163Z,93741.00
2024-03-02T13:58:30.230Z,93754.00
2024-03-02T13:59:30.291Z,93753.00
2024-03-02T14:00:30.360Z,93751.00
